createdAt,value
2023-03-02T00:01:20.294Z,5.30
2023-03-02T00:03:46.903Z,5.00
2023-03-02T00:06:13.438Z,4.90
2023-03-02T00:08:39.959Z,3.93
2023-03-02T00:11:06.457Z,4.93
2023-03-02T00:13:32.980Z,4.43
2023-03-02T00:15:59.577Z,4.97
2023-03-02T00:18:26.070Z,5.23
2023-03-02T00:20:52.578Z,4.57
2023-03-02T00:23:19.160Z,4.93
2023-03-02T00:25:45.696Z,4.00
2023-03-02T00:28:12.301Z,5.00
2023-03-02T00:30:38.768Z,4.67
2023-03-02T00:33:05.297Z,5.10
2023-03-02T00:35:31.825Z,5.07
2023-03-02T00:37:58.352Z,5.20
2023-03-02T00:40:24.940Z,5.43
2023-03-02T00:42:51.446Z,5.23
2023-03-02T00:45:17.935Z,6.43
2023-03-02T00:47:44.425Z,4.30
2023-03-02T00:50:10.919Z,3.90
2023-03-02T00:52:37.518Z,5.13
2023-03-02T00:55:04.014Z,5.13
2023-03-02T00:57:30.564Z,4.33
2023-03-02T00:59:57.161Z,4.97
2023-03-02T01:02:23.824Z,4.50
2023-03-02T01:04:50.512Z,4.40
2023-03-02T01:07:17.073Z,3.50
2023-03-02T01:09:43.548Z,4.30
2023-03-02T01:12:11.204Z,3.40
2023-03-02T01:14:37.747Z,4.40
2023-03-02T01:17:04.271Z,5.17
2023-03-02T01:19:30.916Z,4.77
2023-03-02T01:21:57.444Z,4.30
2023-03-02T01:24:23.934Z,4.53
2023-03-02T01:26:50.490Z,4.33
2023-03-02T01:29:17.048Z,5.10
2023-03-02T01:31:43.593Z,5.00
2023-03-02T01:34:10.149Z,5.20
2023-03-02T01:36:36.656Z,5.90
2023-03-02T01:39:03.310Z,5.10
2023-03-02T01:41:29.997Z,5.60
2023-03-02T01:43:56.536Z,6.03
2023-03-02T01:46:23.012Z,4.37
2023-03-02T01:48:49.521Z,5.00
2023-03-02T01:51:16.021Z,5.20
2023-03-02T01:53:46.501Z,5.30
2023-03-02T01:56:13.002Z,5.53
2023-03-02T01:58:39.547Z,5.53
2023-03-02T02:01:06.100Z,5.23
2023-03-02T02:03:32.655Z,4.70
2023-03-02T02:05:59.173Z,5.13
2023-03-02T02:08:25.688Z,4.40
2023-03-02T02:10:52.171Z,4.37
2023-03-02T02:13:18.652Z,4.10
2023-03-02T02:15:45.158Z,5.30
2023-03-02T02:18:11.745Z,5.10
2023-03-02T02:20:38.291Z,4.67
2023-03-02T02:23:04.797Z,4.50
2023-03-02T02:25:31.351Z,4.70
2023-03-02T02:27:57.874Z,5.10
2023-03-02T02:30:24.373Z,4.30
2023-03-02T02:32:51.940Z,5.60
2023-03-02T02:35:18.486Z,4.63
2023-03-02T02:37:45.261Z,5.10
2023-03-02T02:40:11.736Z,4.03
2023-03-02T02:42:38.332Z,7.13
2023-03-02T02:45:04.827Z,5.57
2023-03-02T02:47:31.337Z,4.70
2023-03-02T02:49:57.865Z,4.30
2023-03-02T02:52:26.654Z,5.93
2023-03-02T02:54:53.187Z,5.30
2023-03-02T02:57:19.745Z,7.33
2023-03-02T02:59:46.283Z,8.13
2023-03-02T03:02:12.757Z,6.30
2023-03-02T03:04:39.368Z,8.10
2023-03-02T03:07:05.887Z,7.03
2023-03-02T03:09:32.451Z,7.13
2023-03-02T03:11:58.992Z,7.57
2023-03-02T03:14:25.541Z,5.47
2023-03-02T03:16:52.195Z,4.40
2023-03-02T03:19:18.732Z,4.97
2023-03-02T03:21:45.388Z,5.27
2023-03-02T03:24:11.894Z,4.57
2023-03-02T03:26:38.378Z,4.53
2023-03-02T03:29:04.953Z,5.40
2023-03-02T03:31:31.488Z,5.40
2023-03-02T03:34:00.472Z,5.53
2023-03-02T03:36:26.968Z,4.90
2023-03-02T03:38:53.451Z,4.43
2023-03-02T03:41:19.972Z,5.77
2023-03-02T03:43:46.539Z,4.57
2023-03-02T03:46:13.088Z,5.00
2023-03-02T03:48:39.658Z,4.60
2023-03-02T03:51:06.148Z,4.93
2023-03-02T03:53:32.646Z,4.90
2023-03-02T03:55:59.202Z,4.33
2023-03-02T03:58:25.770Z,4.80
2023-03-02T04:00:52.364Z,4.80
2023-03-02T04:03:19.700Z,3.83
2023-03-02T04:05:46.200Z,4.90
2023-03-02T04:08:12.867Z,5.57
2023-03-02T04:10:39.400Z,4.77
2023-03-02T04:13:05.921Z,5.07
2023-03-02T04:15:32.465Z,4.60
2023-03-02T04:17:59.032Z,4.20
2023-03-02T04:20:25.536Z,4.97
2023-03-02T04:22:52.023Z,3.87
2023-03-02T04:25:19.707Z,5.57
2023-03-02T04:30:27.850Z,4.43
2023-03-02T04:32:54.662Z,4.50
2023-03-02T04:35:21.251Z,4.37
2023-03-02T04:37:47.813Z,4.93
2023-03-02T04:40:14.399Z,4.80
2023-03-02T04:42:41.680Z,5.20
2023-03-02T04:45:08.302Z,5.60
2023-03-02T04:47:34.777Z,6.47
2023-03-02T04:50:04.431Z,4.53
2023-03-02T04:52:30.916Z,4.30
2023-03-02T04:54:57.452Z,4.50
2023-03-02T04:57:23.981Z,5.23
2023-03-02T04:59:50.468Z,5.53
2023-03-02T05:02:17.392Z,5.07
2023-03-02T05:04:43.998Z,4.80
2023-03-02T05:07:10.537Z,4.43
2023-03-02T05:09:37.144Z,5.37
2023-03-02T05:12:03.693Z,4.13
2023-03-02T05:14:30.456Z,4.60
2023-03-02T05:16:56.939Z,4.47
2023-03-02T05:19:23.441Z,4.90
2023-03-02T05:21:50.054Z,5.83
2023-03-02T05:24:16.703Z,4.17
2023-03-02T05:26:43.281Z,4.57
2023-03-02T05:29:09.744Z,4.53
2023-03-02T05:31:36.393Z,4.07
2023-03-02T05:34:03.002Z,6.17
2023-03-02T05:36:29.591Z,4.27
2023-03-02T05:38:56.074Z,4.97
2023-03-02T05:41:22.607Z,4.60
2023-03-02T05:43:49.184Z,5.27
2023-03-02T05:46:17.162Z,5.20
2023-03-02T05:48:43.834Z,4.00
2023-03-02T05:51:10.317Z,4.80
2023-03-02T05:53:36.812Z,4.20
2023-03-02T05:56:04.018Z,4.53
2023-03-02T05:58:30.554Z,4.73
2023-03-02T06:00:57.075Z,4.80
2023-03-02T06:03:23.673Z,3.40
2023-03-02T06:05:50.772Z,4.30
2023-03-02T06:08:17.990Z,4.37
2023-03-02T06:10:44.560Z,4.37
2023-03-02T06:13:11.069Z,4.73
2023-03-02T06:15:39.596Z,5.10
2023-03-02T06:18:06.153Z,5.37
2023-03-02T06:20:32.670Z,4.40
2023-03-02T06:22:59.196Z,6.03
2023-03-02T06:25:25.685Z,3.90
2023-03-02T06:27:53.529Z,4.17
2023-03-02T06:30:20.021Z,5.43
2023-03-02T06:32:46.931Z,4.17
2023-03-02T06:35:13.567Z,5.70
2023-03-02T06:37:41.762Z,4.60
2023-03-02T06:40:13.569Z,4.27
2023-03-02T06:42:40.174Z,4.77
2023-03-02T06:45:06.695Z,4.70
2023-03-02T06:47:33.348Z,4.23
2023-03-02T06:49:59.841Z,4.90
2023-03-02T06:52:27.411Z,5.20
2023-03-02T06:54:53.899Z,5.43
2023-03-02T06:57:20.365Z,4.73
2023-03-02T06:59:46.955Z,3.53
2023-03-02T07:02:13.520Z,5.10
2023-03-02T07:04:40.050Z,4.37
2023-03-02T07:07:06.534Z,4.67
2023-03-02T07:09:33.847Z,4.87
2023-03-02T07:12:00.480Z,4.20
2023-03-02T07:14:26.949Z,5.03
2023-03-02T07:16:53.585Z,4.90
2023-03-02T07:19:20.224Z,4.23
2023-03-02T07:21:46.698Z,5.80
2023-03-02T07:24:13.254Z,5.87
2023-03-02T07:26:39.760Z,4.80
2023-03-02T07:29:06.276Z,5.40
2023-03-02T07:31:33.006Z,5.50
2023-03-02T07:33:59.715Z,4.87
2023-03-02T07:36:26.326Z,4.97
2023-03-02T07:38:52.864Z,5.47
2023-03-02T07:41:19.441Z,6.00
2023-03-02T07:43:46.026Z,6.47
2023-03-02T07:46:12.669Z,4.40
2023-03-02T07:48:39.221Z,5.13
2023-03-02T07:51:05.806Z,5.70
2023-03-02T07:53:32.317Z,5.47
2023-03-02T07:56:00.796Z,5.17
2023-03-02T07:58:27.340Z,4.43
2023-03-02T08:00:53.959Z,6.10
2023-03-02T08:03:20.466Z,6.10
2023-03-02T08:05:47.263Z,5.77
2023-03-02T08:08:13.874Z,4.10
2023-03-02T08:10:40.421Z,5.83
2023-03-02T08:13:07.252Z,5.10
2023-03-02T08:15:33.746Z,5.30
2023-03-02T08:18:00.274Z,5.57
2023-03-02T08:20:26.809Z,4.67
2023-03-02T08:22:53.369Z,5.37
2023-03-02T08:25:20.143Z,5.17
2023-03-02T08:27:46.699Z,6.17
2023-03-02T08:30:13.156Z,6.57
2023-03-02T08:32:39.753Z,5.80
2023-03-02T08:35:06.337Z,4.70
2023-03-02T08:37:32.860Z,5.03
2023-03-02T08:39:59.330Z,4.97
2023-03-02T08:42:25.845Z,5.43
2023-03-02T08:44:52.316Z,5.53
2023-03-02T08:47:18.838Z,6.10
2023-03-02T08:49:47.491Z,5.10
2023-03-02T08:52:15.255Z,6.03
2023-03-02T08:54:42.030Z,5.13
2023-03-02T08:57:08.559Z,5.40
2023-03-02T08:59:35.043Z,4.40
2023-03-02T09:02:01.562Z,5.50
2023-03-02T09:04:28.097Z,5.60
2023-03-02T09:06:54.597Z,5.50
2023-03-02T09:09:21.103Z,5.47
2023-03-02T09:11:48.280Z,5.80
2023-03-02T09:14:14.893Z,5.30
2023-03-02T09:16:41.396Z,4.73
2023-03-02T09:19:07.930Z,4.70
2023-03-02T09:21:34.859Z,6.50
2023-03-02T09:24:01.658Z,4.87
2023-03-02T09:26:28.247Z,4.90
2023-03-02T09:28:57.130Z,4.90
2023-03-02T09:31:23.870Z,5.10
2023-03-02T09:33:50.480Z,4.80
2023-03-02T09:36:16.964Z,5.20
2023-03-02T09:38:43.492Z,5.10
2023-03-02T09:41:09.954Z,4.50
2023-03-02T09:43:36.436Z,4.10
2023-03-02T09:46:02.950Z,4.70
2023-03-02T09:48:29.528Z,4.30
2023-03-02T09:50:56.350Z,4.70
2023-03-02T09:53:22.921Z,5.03
2023-03-02T09:55:49.398Z,4.73
2023-03-02T09:58:15.904Z,4.20
2023-03-02T10:00:43.804Z,4.60
2023-03-02T10:03:17.219Z,4.50
2023-03-02T10:05:44.138Z,4.33
2023-03-02T10:08:10.625Z,4.27
2023-03-02T10:10:37.082Z,3.63
2023-03-02T10:13:03.655Z,4.77
2023-03-02T10:15:30.389Z,5.07
2023-03-02T10:17:56.893Z,4.80
2023-03-02T10:20:23.404Z,4.03
2023-03-02T10:22:49.931Z,4.13
2023-03-02T10:25:16.436Z,4.00
2023-03-02T10:27:43.011Z,4.53
2023-03-02T10:30:09.551Z,3.87
2023-03-02T10:32:36.191Z,3.87
2023-03-02T10:35:02.740Z,4.20
2023-03-02T10:37:29.228Z,4.27
2023-03-02T10:39:55.746Z,3.87
2023-03-02T10:42:22.343Z,3.43
2023-03-02T10:44:48.944Z,3.63
2023-03-02T10:47:15.483Z,4.73
2023-03-02T10:49:41.980Z,4.87
2023-03-02T10:52:08.513Z,5.13
2023-03-02T10:54:36.644Z,4.87
2023-03-02T10:57:03.162Z,4.43
2023-03-02T10:59:29.684Z,4.27
2023-03-02T11:01:56.234Z,4.47
2023-03-02T11:04:22.830Z,5.50
2023-03-02T11:06:49.322Z,4.23
2023-03-02T11:09:15.889Z,3.73
2023-03-02T11:11:42.371Z,4.30
2023-03-02T11:14:08.962Z,4.70
2023-03-02T11:16:35.523Z,4.07
2023-03-02T11:19:02.005Z,4.50
2023-03-02T11:21:28.494Z,4.37
2023-03-02T11:23:55.012Z,4.10
2023-03-02T11:26:21.519Z,4.07
2023-03-02T11:28:48.040Z,4.13
2023-03-02T11:31:14.594Z,3.50
2023-03-02T11:33:41.164Z,3.90
2023-03-02T11:36:07.824Z,3.90
2023-03-02T11:38:34.351Z,4.10
2023-03-02T11:41:01.050Z,4.53
2023-03-02T11:43:27.558Z,4.60
2023-03-02T11:45:54.272Z,4.10
2023-03-02T11:48:22.283Z,3.97
2023-03-02T11:50:48.763Z,4.30
2023-03-02T11:53:15.343Z,4.50
2023-03-02T11:55:42.056Z,3.67
2023-03-02T11:58:08.536Z,4.20
2023-03-02T12:00:35.033Z,3.50
2023-03-02T12:03:01.631Z,3.77
2023-03-02T12:05:28.149Z,3.20
2023-03-02T12:07:54.692Z,3.33
2023-03-02T12:10:21.263Z,2.90
2023-03-02T12:12:47.856Z,3.83
2023-03-02T12:15:14.327Z,3.30
2023-03-02T12:17:40.861Z,2.60
2023-03-02T12:20:07.359Z,3.13
2023-03-02T12:22:33.835Z,3.30
2023-03-02T12:25:00.330Z,3.20
2023-03-02T12:27:26.938Z,2.53
2023-03-02T12:29:53.465Z,3.20
2023-03-02T12:32:19.978Z,2.57
2023-03-02T12:34:46.471Z,2.70
2023-03-02T12:37:13.018Z,2.33
2023-03-02T12:39:40.103Z,2.40
2023-03-02T12:42:06.612Z,3.20
2023-03-02T12:44:33.193Z,2.43
2023-03-02T12:47:01.012Z,2.50
2023-03-02T12:49:28.276Z,3.40
2023-03-02T12:51:54.926Z,3.00
2023-03-02T12:54:21.497Z,2.53
2023-03-02T12:56:48.061Z,2.83
2023-03-02T12:59:14.540Z,2.47
2023-03-02T13:01:41.025Z,2.87
2023-03-02T13:04:07.583Z,3.20
2023-03-02T13:06:34.447Z,2.40
2023-03-02T13:09:01.125Z,3.10
2023-03-02T13:11:27.808Z,2.90
2023-03-02T13:13:54.281Z,2.80
2023-03-02T13:16:21.131Z,3.10
2023-03-02T13:18:49.348Z,2.80
2023-03-02T13:21:15.849Z,3.07
2023-03-02T13:23:42.324Z,2.97
2023-03-02T13:26:08.841Z,3.20
2023-03-02T13:28:35.370Z,3.30
2023-03-02T13:31:02.073Z,2.70
2023-03-02T13:33:28.742Z,3.50
2023-03-02T13:35:56.072Z,3.10
2023-03-02T13:38:22.582Z,3.87
2023-03-02T13:40:49.426Z,3.90
2023-03-02T13:43:16.009Z,3.30
2023-03-02T13:45:42.523Z,3.00
2023-03-02T13:48:09.098Z,3.80
2023-03-02T13:50:35.588Z,3.10
2023-03-02T13:53:04.033Z,3.80
2023-03-02T13:55:30.636Z,3.20
2023-03-02T13:57:57.157Z,3.37
2023-03-02T14:00:23.885Z,3.47
2023-03-02T14:02:50.477Z,3.97
2023-03-02T14:05:17.095Z,3.97
2023-03-02T14:07:43.867Z,3.20
2023-03-02T14:10:10.349Z,3.93
2023-03-02T14:12:36.881Z,4.07
2023-03-02T14:15:03.444Z,3.83
2023-03-02T14:17:29.972Z,3.80
2023-03-02T14:19:56.546Z,3.33
2023-03-02T14:22:23.185Z,3.33
2023-03-02T14:24:49.748Z,3.50
2023-03-02T14:27:16.395Z,4.00
2023-03-02T14:29:42.853Z,4.03
2023-03-02T14:32:09.433Z,3.33
2023-03-02T14:34:39.084Z,3.40
2023-03-02T14:37:05.656Z,3.50
2023-03-02T14:39:32.145Z,2.80
2023-03-02T14:41:58.982Z,3.60
2023-03-02T14:44:25.795Z,3.30
2023-03-02T14:46:53.032Z,4.13
2023-03-02T14:49:19.664Z,3.20
2023-03-02T14:51:46.146Z,3.20
2023-03-02T14:54:12.695Z,3.60
2023-03-02T14:56:39.217Z,3.10
2023-03-02T14:59:05.719Z,3.20
2023-03-02T15:01:32.573Z,3.63
2023-03-02T15:03:59.324Z,3.03
2023-03-02T15:06:26.342Z,4.57
2023-03-02T15:08:52.962Z,3.60
2023-03-02T15:11:19.440Z,3.50
2023-03-02T15:13:46.060Z,2.80
2023-03-02T15:16:12.580Z,2.27
2023-03-02T15:18:39.104Z,3.43
2023-03-02T15:21:05.645Z,3.43
2023-03-02T15:23:32.830Z,3.40
2023-03-02T15:25:59.749Z,3.03
2023-03-02T15:28:26.304Z,3.53
2023-03-02T15:30:52.794Z,4.13
2023-03-02T15:33:19.323Z,3.47
2023-03-02T15:35:46.116Z,2.83
2023-03-02T15:38:12.617Z,3.17
2023-03-02T15:40:39.099Z,3.73
2023-03-02T15:43:05.577Z,2.77
2023-03-02T15:45:32.161Z,4.10
2023-03-02T15:47:58.926Z,3.17
2023-03-02T15:50:25.486Z,3.60
2023-03-02T15:52:52.027Z,3.67
2023-03-02T15:55:18.588Z,3.40
2023-03-02T15:57:45.112Z,4.27
2023-03-02T16:00:13.476Z,3.63
2023-03-02T16:02:40.663Z,3.50
2023-03-02T16:05:07.192Z,3.80
2023-03-02T16:07:34.324Z,3.53
2023-03-02T16:10:00.958Z,3.70
2023-03-02T16:12:27.493Z,4.33
2023-03-02T16:14:54.065Z,4.00
2023-03-02T16:17:21.313Z,3.60
2023-03-02T16:19:47.793Z,3.97
2023-03-02T16:22:14.332Z,3.53
2023-03-02T16:24:41.885Z,4.10
2023-03-02T16:27:08.476Z,3.83
2023-03-02T16:29:34.996Z,3.20
2023-03-02T16:32:01.716Z,4.03
2023-03-02T16:34:28.471Z,3.40
2023-03-02T16:36:54.961Z,3.80
2023-03-02T16:39:21.579Z,3.57
2023-03-02T16:41:48.082Z,4.50
2023-03-02T16:44:14.614Z,3.50
2023-03-02T16:46:43.260Z,4.00
2023-03-02T16:49:09.774Z,4.80
2023-03-02T16:51:36.297Z,4.07
2023-03-02T16:54:02.888Z,3.87
2023-03-02T16:56:29.382Z,3.83
2023-03-02T16:58:56.934Z,5.10
2023-03-02T17:01:24.838Z,4.83
2023-03-02T17:03:51.374Z,5.50
2023-03-02T17:06:17.925Z,4.40
2023-03-02T17:08:44.482Z,4.63
2023-03-02T17:11:11.014Z,4.80
2023-03-02T17:13:37.538Z,5.37
2023-03-02T17:16:04.250Z,7.20
2023-03-02T17:18:30.822Z,6.20
2023-03-02T17:20:57.289Z,6.93
2023-03-02T17:23:23.849Z,6.90
2023-03-02T17:25:50.341Z,7.10
2023-03-02T17:28:16.869Z,5.83
2023-03-02T17:30:43.420Z,6.07
2023-03-02T17:33:09.987Z,6.27
2023-03-02T17:35:39.441Z,7.10
2023-03-02T17:38:06.003Z,7.03
2023-03-02T17:40:32.505Z,7.97
2023-03-02T17:42:58.968Z,9.40
2023-03-02T17:45:25.619Z,9.87
2023-03-02T17:47:52.140Z,9.37
2023-03-02T17:52:46.548Z,10.93
2023-03-02T17:55:13.700Z,11.60
2023-03-02T17:57:40.201Z,11.53
2023-03-02T18:00:06.789Z,11.60
2023-03-02T18:02:33.302Z,13.10
2023-03-02T18:04:59.787Z,11.93
2023-03-02T18:07:26.260Z,12.93
2023-03-02T18:09:52.776Z,12.37
2023-03-02T18:12:19.273Z,12.97
2023-03-02T18:14:45.773Z,12.00
2023-03-02T18:17:12.375Z,12.23
2023-03-02T18:19:38.837Z,12.90
2023-03-02T18:22:05.452Z,12.90
2023-03-02T18:24:32.020Z,14.23
2023-03-02T18:26:58.504Z,14.73
2023-03-02T18:29:25.048Z,12.57
2023-03-02T18:31:53.110Z,12.90
2023-03-02T18:34:19.878Z,12.77
2023-03-02T18:36:46.443Z,14.07
2023-03-02T18:39:13.117Z,15.10
2023-03-02T18:41:39.706Z,14.00
2023-03-02T18:44:06.195Z,13.43
2023-03-02T18:46:32.835Z,15.30
2023-03-02T18:49:00.769Z,16.10
2023-03-02T18:51:27.242Z,15.00
2023-03-02T18:53:53.734Z,14.03
2023-03-02T18:56:20.311Z,16.30
2023-03-02T18:58:47.034Z,15.20
2023-03-02T19:01:13.682Z,14.57
2023-03-02T19:03:41.639Z,15.67
2023-03-02T19:06:08.155Z,14.87
2023-03-02T19:08:35.363Z,15.30
2023-03-02T19:11:01.949Z,14.40
2023-03-02T19:13:28.688Z,15.67
2023-03-02T19:15:55.325Z,15.23
2023-03-02T19:18:21.864Z,13.07
2023-03-02T19:20:48.402Z,16.47
2023-03-02T19:23:14.879Z,15.30
2023-03-02T19:25:41.410Z,16.50
2023-03-02T19:28:07.916Z,16.20
2023-03-02T19:30:34.970Z,17.00
2023-03-02T19:33:01.823Z,16.30
2023-03-02T19:35:28.488Z,15.17
2023-03-02T19:37:55.209Z,17.13
2023-03-02T19:40:21.821Z,16.67
2023-03-02T19:42:48.398Z,17.03
2023-03-02T19:45:14.877Z,16.40
2023-03-02T19:47:41.367Z,17.00
2023-03-02T19:50:07.870Z,17.03
2023-03-02T19:52:34.351Z,16.30
2023-03-02T19:55:00.882Z,17.87
2023-03-02T19:57:27.427Z,17.47
2023-03-02T19:59:54.333Z,15.97
2023-03-02T20:02:20.873Z,17.20
2023-03-02T20:04:48.788Z,17.97
2023-03-02T20:07:15.280Z,18.77
2023-03-02T20:09:42.336Z,16.80
2023-03-02T20:12:09.337Z,17.30
2023-03-02T20:14:35.990Z,16.97
2023-03-02T20:17:02.565Z,18.93
2023-03-02T20:19:29.233Z,16.97
2023-03-02T20:21:55.718Z,17.47
2023-03-02T20:24:22.227Z,18.30
2023-03-02T20:26:48.942Z,20.13
2023-03-02T20:29:15.447Z,20.10
2023-03-02T20:31:41.950Z,17.93
2023-03-02T20:34:08.595Z,18.30
2023-03-02T20:36:35.181Z,19.00
2023-03-02T20:39:01.799Z,21.37
2023-03-02T20:41:28.349Z,21.23
2023-03-02T20:43:54.957Z,22.53
2023-03-02T20:46:21.485Z,21.33
2023-03-02T20:48:48.028Z,20.27
2023-03-02T20:51:14.561Z,23.23
2023-03-02T20:53:41.095Z,20.80
2023-03-02T20:56:07.927Z,25.83
2023-03-02T20:58:35.501Z,21.67
2023-03-02T21:01:02.543Z,24.53
2023-03-02T21:03:29.203Z,23.30
2023-03-02T21:05:55.687Z,21.80
2023-03-02T21:08:22.184Z,24.00
2023-03-02T21:10:49.055Z,23.10
2023-03-02T21:13:15.717Z,21.50
2023-03-02T21:15:44.196Z,22.97
2023-03-02T21:18:10.694Z,23.53
2023-03-02T21:20:37.444Z,22.40
2023-03-02T21:23:04.112Z,24.87
2023-03-02T21:25:30.602Z,22.80
2023-03-02T21:27:57.167Z,22.57
2023-03-02T21:30:23.665Z,22.20
2023-03-02T21:32:50.141Z,23.00
2023-03-02T21:35:16.658Z,24.57
2023-03-02T21:37:43.183Z,22.37
2023-03-02T21:40:09.830Z,23.40
2023-03-02T21:42:36.383Z,26.03
2023-03-02T21:45:03.426Z,26.03
2023-03-02T21:47:29.898Z,25.77
2023-03-02T21:49:56.380Z,22.47
2023-03-02T21:52:22.869Z,23.07
2023-03-02T21:54:49.433Z,24.03
2023-03-02T21:57:16.111Z,24.30
2023-03-02T21:59:42.614Z,23.60
2023-03-02T22:02:09.139Z,24.97
2023-03-02T22:04:35.788Z,24.40
2023-03-02T22:07:02.327Z,22.97
2023-03-02T22:09:28.838Z,24.23
2023-03-02T22:11:55.318Z,24.90
2023-03-02T22:14:21.795Z,23.20
2023-03-02T22:16:48.366Z,24.80
2023-03-02T22:19:14.925Z,22.47
2023-03-02T22:21:41.386Z,25.20
2023-03-02T22:24:07.868Z,25.97
2023-03-02T22:26:35.624Z,26.10
2023-03-02T22:29:02.304Z,26.00
2023-03-02T22:31:29.161Z,24.30
2023-03-02T22:33:55.774Z,21.77
2023-03-02T22:36:22.283Z,23.30
2023-03-02T22:38:48.765Z,26.70
2023-03-02T22:41:15.301Z,24.00
2023-03-02T22:43:41.880Z,23.47
2023-03-02T22:46:08.364Z,26.00
2023-03-02T22:48:34.882Z,25.77
2023-03-02T22:51:01.341Z,26.30
2023-03-02T22:53:27.928Z,23.83
2023-03-02T22:55:54.548Z,22.50
2023-03-02T22:58:21.116Z,24.20
2023-03-02T23:00:47.876Z,24.47
2023-03-02T23:03:17.211Z,26.10
2023-03-02T23:05:48.774Z,22.87
2023-03-02T23:08:15.335Z,22.60
2023-03-02T23:10:41.857Z,25.40
2023-03-02T23:13:08.352Z,24.47
2023-03-02T23:15:34.892Z,21.03
2023-03-02T23:18:01.407Z,22.37
2023-03-02T23:20:27.948Z,21.67
2023-03-02T23:22:54.990Z,23.17
2023-03-02T23:25:22.102Z,22.53
2023-03-02T23:27:48.566Z,24.17
2023-03-02T23:30:17.766Z,23.40
2023-03-02T23:32:44.275Z,22.53
2023-03-02T23:35:10.799Z,21.43
2023-03-02T23:37:37.320Z,22.70
2023-03-02T23:40:04.095Z,23.03
2023-03-02T23:42:30.605Z,23.10
2023-03-02T23:44:57.165Z,21.47
2023-03-02T23:47:23.619Z,22.60
2023-03-02T23:49:50.127Z,20.60
2023-03-02T23:54:46.082Z,18.73
2023-03-02T23:57:12.586Z,22.03
2023-03-02T23:59:39.056Z,25.13
